sensor_id;sensor_type;location;lat;lon;timestamp;pressure;altitude;pressure_sealevel;temperature;humidity
52591;BME280;38483;42.620;25.394;2023-11-21T00:00:44;96819.84;;;7.65;69.32
52591;BME280;38483;42.620;25.394;2023-11-21T00:03:12;96822.03;;;7.54;69.39
52591;BME280;38483;42.620;25.394;2023-11-21T00:05:42;96818.13;;;7.65;68.76
52591;BME280;38483;42.620;25.394;2023-11-21T00:08:09;96821.78;;;7.60;69.05
52591;BME280;38483;42.620;25.394;2023-11-21T00:10:36;96818.03;;;7.68;68.73
52591;BME280;38483;42.620;25.394;2023-11-21T00:13:05;96814.84;;;7.83;68.60
52591;BME280;38483;42.620;25.394;2023-11-21T00:15:33;96827.50;;;8.11;67.19
52591;BME280;38483;42.620;25.394;2023-11-21T00:18:00;96820.72;;;8.08;67.81
52591;BME280;38483;42.620;25.394;2023-11-21T00:20:29;96795.19;;;7.81;68.42
52591;BME280;38483;42.620;25.394;2023-11-21T00:22:57;96785.47;;;7.87;67.66
52591;BME280;38483;42.620;25.394;2023-11-21T00:25:26;96787.03;;;7.70;68.73
52591;BME280;38483;42.620;25.394;2023-11-21T00:27:56;96817.03;;;8.15;67.63
52591;BME280;38483;42.620;25.394;2023-11-21T00:30:23;96819.75;;;7.68;69.02
52591;BME280;38483;42.620;25.394;2023-11-21T00:32:50;96814.34;;;7.52;70.72
52591;BME280;38483;42.620;25.394;2023-11-21T00:35:18;96820.22;;;7.77;69.61
52591;BME280;38483;42.620;25.394;2023-11-21T00:37:48;96814.41;;;7.95;68.79
52591;BME280;38483;42.620;25.394;2023-11-21T00:40:16;96799.56;;;8.00;69.24
52591;BME280;38483;42.620;25.394;2023-11-21T00:42:48;96818.75;;;8.15;67.53
52591;BME280;38483;42.620;25.394;2023-11-21T00:45:15;96821.72;;;8.28;67.98
52591;BME280;38483;42.620;25.394;2023-11-21T00:47:42;96837.06;;;8.31;67.53
52591;BME280;38483;42.620;25.394;2023-11-21T00:50:09;96828.41;;;8.10;68.27
52591;BME280;38483;42.620;25.394;2023-11-21T00:52:37;96830.34;;;8.27;67.82
52591;BME280;38483;42.620;25.394;2023-11-21T00:55:05;96827.44;;;8.12;67.73
52591;BME280;38483;42.620;25.394;2023-11-21T00:57:34;96817.66;;;8.20;68.20
52591;BME280;38483;42.620;25.394;2023-11-21T01:00:03;96819.00;;;8.09;67.91
52591;BME280;38483;42.620;25.394;2023-11-21T01:02:34;96822.66;;;8.03;67.92
52591;BME280;38483;42.620;25.394;2023-11-21T01:05:03;96812.28;;;6.91;69.75
52591;BME280;38483;42.620;25.394;2023-11-21T01:07:30;96809.19;;;6.32;72.96
52591;BME280;38483;42.620;25.394;2023-11-21T01:09:58;96742.03;;;5.61;74.92
52591;BME280;38483;42.620;25.394;2023-11-21T01:12:26;96798.78;;;6.09;74.89
52591;BME280;38483;42.620;25.394;2023-11-21T01:14:54;96796.28;;;6.33;74.02
52591;BME280;38483;42.620;25.394;2023-11-21T01:17:21;96807.28;;;6.86;72.89
52591;BME280;38483;42.620;25.394;2023-11-21T01:19:51;96805.00;;;6.79;72.00
52591;BME280;38483;42.620;25.394;2023-11-21T01:22:18;96801.34;;;6.86;71.29
52591;BME280;38483;42.620;25.394;2023-11-21T01:24:49;96801.34;;;6.86;72.56
52591;BME280;38483;42.620;25.394;2023-11-21T01:27:16;96801.75;;;6.74;72.24
52591;BME280;38483;42.620;25.394;2023-11-21T01:29:44;96793.66;;;6.84;72.37
52591;BME280;38483;42.620;25.394;2023-11-21T01:32:12;96805.56;;;6.87;71.78
52591;BME280;38483;42.620;25.394;2023-11-21T01:34:39;96797.09;;;7.08;72.49
52591;BME280;38483;42.620;25.394;2023-11-21T01:37:06;96786.34;;;7.20;69.88
52591;BME280;38483;42.620;25.394;2023-11-21T01:39:33;96789.50;;;6.80;70.97
52591;BME280;38483;42.620;25.394;2023-11-21T01:42:00;96793.00;;;6.54;72.70
52591;BME280;38483;42.620;25.394;2023-11-21T01:44:28;96789.03;;;6.44;73.55
52591;BME280;38483;42.620;25.394;2023-11-21T01:46:56;96771.91;;;6.19;73.86
52591;BME280;38483;42.620;25.394;2023-11-21T01:49:24;96787.72;;;6.57;73.17
52591;BME280;38483;42.620;25.394;2023-11-21T01:51:51;96793.81;;;6.80;73.05
52591;BME280;38483;42.620;25.394;2023-11-21T01:54:19;96785.41;;;6.75;71.60
52591;BME280;38483;42.620;25.394;2023-11-21T01:56:47;96797.47;;;6.97;71.55
52591;BME280;38483;42.620;25.394;2023-11-21T01:59:18;96784.31;;;6.82;70.73
52591;BME280;38483;42.620;25.394;2023-11-21T02:01:47;96792.50;;;6.68;71.29
52591;BME280;38483;42.620;25.394;2023-11-21T02:04:14;96792.88;;;6.57;72.83
52591;BME280;38483;42.620;25.394;2023-11-21T02:06:42;96790.72;;;6.45;72.78
52591;BME280;38483;42.620;25.394;2023-11-21T02:09:10;96778.16;;;6.12;74.23
52591;BME280;38483;42.620;25.394;2023-11-21T02:11:37;96799.22;;;6.47;73.32
52591;BME280;38483;42.620;25.394;2023-11-21T02:14:06;96788.47;;;6.10;73.67
52591;BME280;38483;42.620;25.394;2023-11-21T02:16:36;96785.50;;;5.96;73.85
52591;BME280;38483;42.620;25.394;2023-11-21T02:19:07;96767.75;;;5.89;74.41
52591;BME280;38483;42.620;25.394;2023-11-21T02:21:36;96760.53;;;5.72;75.48
52591;BME280;38483;42.620;25.394;2023-11-21T02:24:07;96788.38;;;5.87;74.55
52591;BME280;38483;42.620;25.394;2023-11-21T02:26:34;96769.53;;;5.87;76.02
52591;BME280;38483;42.620;25.394;2023-11-21T02:29:01;96776.13;;;5.95;74.55
52591;BME280;38483;42.620;25.394;2023-11-21T02:31:31;96776.91;;;5.97;75.35
52591;BME280;38483;42.620;25.394;2023-11-21T02:34:00;96772.44;;;6.02;75.13
52591;BME280;38483;42.620;25.394;2023-11-21T02:36:28;96769.28;;;5.94;73.90
52591;BME280;38483;42.620;25.394;2023-11-21T02:38:55;96768.84;;;6.08;74.91
52591;BME280;38483;42.620;25.394;2023-11-21T02:41:22;96776.59;;;6.06;74.36
52591;BME280;38483;42.620;25.394;2023-11-21T02:43:49;96763.53;;;6.12;74.24
52591;BME280;38483;42.620;25.394;2023-11-21T02:46:16;96766.09;;;6.14;74.12
52591;BME280;38483;42.620;25.394;2023-11-21T02:48:43;96767.53;;;6.21;74.75
52591;BME280;38483;42.620;25.394;2023-11-21T02:51:10;96768.47;;;6.44;73.77
52591;BME280;38483;42.620;25.394;2023-11-21T02:53:39;96704.34;;;6.15;73.11
52591;BME280;38483;42.620;25.394;2023-11-21T02:56:08;96719.13;;;6.33;72.89
52591;BME280;38483;42.620;25.394;2023-11-21T02:58:35;96756.41;;;6.46;72.11
52591;BME280;38483;42.620;25.394;2023-11-21T03:01:03;96758.84;;;6.49;73.00
52591;BME280;38483;42.620;25.394;2023-11-21T03:03:32;96780.97;;;6.55;73.38
52591;BME280;38483;42.620;25.394;2023-11-21T03:05:59;96773.25;;;6.55;73.28
52591;BME280;38483;42.620;25.394;2023-11-21T03:08:26;96786.06;;;6.56;73.31
52591;BME280;38483;42.620;25.394;2023-11-21T03:10:53;96793.13;;;6.75;72.51
52591;BME280;38483;42.620;25.394;2023-11-21T03:13:22;96785.94;;;6.59;72.14
52591;BME280;38483;42.620;25.394;2023-11-21T03:15:49;96780.00;;;6.57;71.85
52591;BME280;38483;42.620;25.394;2023-11-21T03:18:16;96786.41;;;6.46;72.30
52591;BME280;38483;42.620;25.394;2023-11-21T03:20:45;96783.69;;;6.26;72.50
52591;BME280;38483;42.620;25.394;2023-11-21T03:23:13;96794.97;;;6.20;73.71
52591;BME280;38483;42.620;25.394;2023-11-21T03:25:40;96793.41;;;6.16;73.55
52591;BME280;38483;42.620;25.394;2023-11-21T03:28:08;96793.44;;;6.15;72.64
52591;BME280;38483;42.620;25.394;2023-11-21T03:30:35;96792.41;;;5.66;74.67
52591;BME280;38483;42.620;25.394;2023-11-21T03:33:03;96782.31;;;5.60;74.08
52591;BME280;38483;42.620;25.394;2023-11-21T03:35:30;96783.25;;;5.58;74.29
52591;BME280;38483;42.620;25.394;2023-11-21T03:37:57;96759.25;;;5.30;74.92
52591;BME280;38483;42.620;25.394;2023-11-21T03:40:29;96778.19;;;5.27;76.07
52591;BME280;38483;42.620;25.394;2023-11-21T03:42:56;96784.31;;;5.23;76.00
52591;BME280;38483;42.620;25.394;2023-11-21T03:45:23;96791.50;;;5.11;77.25
52591;BME280;38483;42.620;25.394;2023-11-21T03:47:51;96768.53;;;5.35;75.74
52591;BME280;38483;42.620;25.394;2023-11-21T03:50:19;96800.25;;;5.62;74.95
52591;BME280;38483;42.620;25.394;2023-11-21T03:52:46;96808.38;;;5.76;74.48
52591;BME280;38483;42.620;25.394;2023-11-21T03:55:13;96811.06;;;6.01;73.47
52591;BME280;38483;42.620;25.394;2023-11-21T03:57:42;96793.66;;;5.81;73.25
52591;BME280;38483;42.620;25.394;2023-11-21T04:00:10;96811.56;;;5.84;73.51
52591;BME280;38483;42.620;25.394;2023-11-21T04:02:40;96800.16;;;5.36;75.42
52591;BME280;38483;42.620;25.394;2023-11-21T04:05:07;96801.81;;;5.38;75.24
52591;BME280;38483;42.620;25.394;2023-11-21T04:07:36;96810.78;;;5.24;75.77
52591;BME280;38483;42.620;25.394;2023-11-21T04:10:08;96818.31;;;5.30;76.56
52591;BME280;38483;42.620;25.394;2023-11-21T04:12:36;96813.00;;;5.36;75.95
52591;BME280;38483;42.620;25.394;2023-11-21T04:15:03;96761.56;;;4.80;77.14
52591;BME280;38483;42.620;25.394;2023-11-21T04:17:31;96796.81;;;5.05;77.93
52591;BME280;38483;42.620;25.394;2023-11-21T04:19:58;96787.84;;;4.88;77.13
52591;BME280;38483;42.620;25.394;2023-11-21T04:22:25;96802.69;;;5.08;76.90
52591;BME280;38483;42.620;25.394;2023-11-21T04:24:52;96792.06;;;4.91;78.33
52591;BME280;38483;42.620;25.394;2023-11-21T04:27:19;96811.47;;;5.00;78.00
52591;BME280;38483;42.620;25.394;2023-11-21T04:29:46;96803.22;;;4.90;78.46
52591;BME280;38483;42.620;25.394;2023-11-21T04:32:13;96814.94;;;4.99;78.20
52591;BME280;38483;42.620;25.394;2023-11-21T04:34:40;96801.34;;;4.95;78.06
52591;BME280;38483;42.620;25.394;2023-11-21T04:37:08;96809.00;;;5.27;77.81
52591;BME280;38483;42.620;25.394;2023-11-21T04:39:36;96819.28;;;5.55;76.25
52591;BME280;38483;42.620;25.394;2023-11-21T04:42:03;96819.28;;;5.55;76.10
52591;BME280;38483;42.620;25.394;2023-11-21T04:44:31;96801.44;;;5.50;76.72
52591;BME280;38483;42.620;25.394;2023-11-21T04:46:58;96821.47;;;5.67;75.56
52591;BME280;38483;42.620;25.394;2023-11-21T04:49:26;96820.28;;;5.78;75.60
52591;BME280;38483;42.620;25.394;2023-11-21T04:51:53;96818.09;;;5.94;75.04
52591;BME280;38483;42.620;25.394;2023-11-21T04:54:22;96821.09;;;6.08;73.53
52591;BME280;38483;42.620;25.394;2023-11-21T04:56:53;96803.78;;;6.13;73.76
52591;BME280;38483;42.620;25.394;2023-11-21T04:59:20;96814.16;;;6.10;73.34
52591;BME280;38483;42.620;25.394;2023-11-21T05:01:51;96815.06;;;6.09;73.75
52591;BME280;38483;42.620;25.394;2023-11-21T05:04:20;96828.19;;;6.00;72.97
52591;BME280;38483;42.620;25.394;2023-11-21T05:06:50;96823.59;;;5.82;73.99
52591;BME280;38483;42.620;25.394;2023-11-21T05:09:17;96837.94;;;5.91;73.96
52591;BME280;38483;42.620;25.394;2023-11-21T05:11:44;96827.72;;;5.89;74.09
52591;BME280;38483;42.620;25.394;2023-11-21T05:14:12;96836.53;;;5.79;73.67
52591;BME280;38483;42.620;25.394;2023-11-21T05:16:40;96844.34;;;5.76;74.04
52591;BME280;38483;42.620;25.394;2023-11-21T05:19:07;96849.59;;;5.71;74.13
52591;BME280;38483;42.620;25.394;2023-11-21T05:21:36;96839.94;;;5.52;74.40
52591;BME280;38483;42.620;25.394;2023-11-21T05:24:04;96843.56;;;5.45;76.39
52591;BME280;38483;42.620;25.394;2023-11-21T05:26:32;96840.44;;;5.63;75.51
52591;BME280;38483;42.620;25.394;2023-11-21T05:28:59;96840.72;;;5.82;75.91
52591;BME280;38483;42.620;25.394;2023-11-21T05:31:26;96828.94;;;5.76;74.77
52591;BME280;38483;42.620;25.394;2023-11-21T05:33:54;96838.72;;;5.93;75.43
52591;BME280;38483;42.620;25.394;2023-11-21T05:36:21;96860.13;;;5.93;74.90
52591;BME280;38483;42.620;25.394;2023-11-21T05:38:48;96816.22;;;5.71;74.05
52591;BME280;38483;42.620;25.394;2023-11-21T05:41:15;96829.91;;;6.01;74.36
52591;BME280;38483;42.620;25.394;2023-11-21T05:43:42;96849.88;;;6.19;74.77
52591;BME280;38483;42.620;25.394;2023-11-21T05:46:09;96831.53;;;6.30;73.48
52591;BME280;38483;42.620;25.394;2023-11-21T05:48:38;96838.53;;;6.25;73.42
52591;BME280;38483;42.620;25.394;2023-11-21T05:51:06;96838.00;;;6.15;73.97
52591;BME280;38483;42.620;25.394;2023-11-21T05:53:33;96833.19;;;6.05;74.25
52591;BME280;38483;42.620;25.394;2023-11-21T05:56:00;96848.59;;;6.32;73.70
52591;BME280;38483;42.620;25.394;2023-11-21T05:58:27;96839.06;;;6.36;72.96
52591;BME280;38483;42.620;25.394;2023-11-21T06:00:54;96846.22;;;6.52;73.37
52591;BME280;38483;42.620;25.394;2023-11-21T06:03:21;96842.03;;;6.75;72.94
52591;BME280;38483;42.620;25.394;2023-11-21T06:05:50;96829.50;;;6.90;71.70
52591;BME280;38483;42.620;25.394;2023-11-21T06:08:17;96843.25;;;6.89;71.90
52591;BME280;38483;42.620;25.394;2023-11-21T06:10:44;96787.19;;;6.73;70.92
52591;BME280;38483;42.620;25.394;2023-11-21T06:13:11;96842.09;;;6.73;72.12
52591;BME280;38483;42.620;25.394;2023-11-21T06:15:38;96832.72;;;6.95;72.45
52591;BME280;38483;42.620;25.394;2023-11-21T06:18:05;96830.22;;;6.94;72.29
52591;BME280;38483;42.620;25.394;2023-11-21T06:20:41;96855.22;;;7.15;71.59
52591;BME280;38483;42.620;25.394;2023-11-21T06:23:08;96800.63;;;6.81;71.90
52591;BME280;38483;42.620;25.394;2023-11-21T06:25:36;96856.59;;;7.00;71.38
52591;BME280;38483;42.620;25.394;2023-11-21T06:28:03;96855.09;;;7.18;70.85
52591;BME280;38483;42.620;25.394;2023-11-21T06:30:30;96861.47;;;7.08;70.80
52591;BME280;38483;42.620;25.394;2023-11-21T06:32:58;96856.38;;;6.82;71.74
52591;BME280;38483;42.620;25.394;2023-11-21T06:35:26;96852.16;;;7.04;71.04
52591;BME280;38483;42.620;25.394;2023-11-21T06:37:57;96862.94;;;7.15;71.56
52591;BME280;38483;42.620;25.394;2023-11-21T06:40:24;96838.06;;;7.14;70.72
52591;BME280;38483;42.620;25.394;2023-11-21T06:42:51;96846.38;;;7.22;70.54
52591;BME280;38483;42.620;25.394;2023-11-21T06:45:19;96869.94;;;7.34;70.96
52591;BME280;38483;42.620;25.394;2023-11-21T06:47:47;96874.41;;;7.06;71.18
52591;BME280;38483;42.620;25.394;2023-11-21T06:50:15;96866.75;;;7.03;71.55
52591;BME280;38483;42.620;25.394;2023-11-21T06:52:42;96842.94;;;6.98;71.33
52591;BME280;38483;42.620;25.394;2023-11-21T06:55:10;96843.97;;;6.68;72.47
52591;BME280;38483;42.620;25.394;2023-11-21T06:57:38;96863.53;;;6.98;71.16
52591;BME280;38483;42.620;25.394;2023-11-21T07:00:05;96857.31;;;6.79;71.66
52591;BME280;38483;42.620;25.394;2023-11-21T07:02:36;96858.00;;;7.09;71.72
52591;BME280;38483;42.620;25.394;2023-11-21T07:05:04;96890.72;;;7.53;71.21
52591;BME280;38483;42.620;25.394;2023-11-21T07:07:34;96882.72;;;7.61;69.94
52591;BME280;38483;42.620;25.394;2023-11-21T07:10:03;96891.38;;;7.81;70.47
52591;BME280;38483;42.620;25.394;2023-11-21T07:12:32;96879.19;;;7.86;70.18
52591;BME280;38483;42.620;25.394;2023-11-21T07:15:00;96886.91;;;7.86;70.07
52591;BME280;38483;42.620;25.394;2023-11-21T07:17:30;96885.75;;;8.16;69.31
52591;BME280;38483;42.620;25.394;2023-11-21T07:19:59;96864.09;;;8.20;69.22
52591;BME280;38483;42.620;25.394;2023-11-21T07:22:30;96865.97;;;8.17;68.18
52591;BME280;38483;42.620;25.394;2023-11-21T07:24:57;96870.03;;;8.22;68.21
52591;BME280;38483;42.620;25.394;2023-11-21T07:27:29;96885.97;;;8.10;68.56
52591;BME280;38483;42.620;25.394;2023-11-21T07:29:57;96873.09;;;8.10;69.12
52591;BME280;38483;42.620;25.394;2023-11-21T07:32:26;96882.22;;;8.19;68.82
52591;BME280;38483;42.620;25.394;2023-11-21T07:34:53;96890.66;;;8.22;69.25
52591;BME280;38483;42.620;25.394;2023-11-21T07:37:25;96892.75;;;8.36;69.00
52591;BME280;38483;42.620;25.394;2023-11-21T07:39:55;96889.38;;;8.34;68.71
52591;BME280;38483;42.620;25.394;2023-11-21T07:42:25;96887.81;;;8.52;68.28
52591;BME280;38483;42.620;25.394;2023-11-21T07:44:53;96873.63;;;8.62;68.02
52591;BME280;38483;42.620;25.394;2023-11-21T07:47:22;96868.44;;;8.83;68.23
52591;BME280;38483;42.620;25.394;2023-11-21T07:49:50;96821.56;;;8.72;68.23
52591;BME280;38483;42.620;25.394;2023-11-21T07:52:18;96873.25;;;9.11;68.50
52591;BME280;38483;42.620;25.394;2023-11-21T07:54:48;96879.53;;;9.26;68.47
52591;BME280;38483;42.620;25.394;2023-11-21T07:57:15;96857.53;;;9.36;68.30
52591;BME280;38483;42.620;25.394;2023-11-21T07:59:44;96845.78;;;9.67;67.18
52591;BME280;38483;42.620;25.394;2023-11-21T08:02:11;96820.97;;;9.82;64.39
52591;BME280;38483;42.620;25.394;2023-11-21T08:04:39;96848.47;;;10.02;63.95
52591;BME280;38483;42.620;25.394;2023-11-21T08:07:06;96833.34;;;10.13;64.10
52591;BME280;38483;42.620;25.394;2023-11-21T08:09:33;96842.53;;;10.00;63.36
52591;BME280;38483;42.620;25.394;2023-11-21T08:12:01;96852.47;;;10.27;63.92
52591;BME280;38483;42.620;25.394;2023-11-21T08:14:29;96815.78;;;10.01;63.16
52591;BME280;38483;42.620;25.394;2023-11-21T08:16:57;96838.75;;;10.61;62.07
52591;BME280;38483;42.620;25.394;2023-11-21T08:19:25;96804.25;;;10.60;61.08
52591;BME280;38483;42.620;25.394;2023-11-21T08:21:55;96820.47;;;10.98;60.78
52591;BME280;38483;42.620;25.394;2023-11-21T08:24:22;96836.69;;;11.19;60.32
52591;BME280;38483;42.620;25.394;2023-11-21T08:26:49;96858.28;;;11.35;59.23
52591;BME280;38483;42.620;25.394;2023-11-21T08:29:18;96824.38;;;11.22;58.80
52591;BME280;38483;42.620;25.394;2023-11-21T08:31:45;96860.81;;;11.52;58.55
52591;BME280;38483;42.620;25.394;2023-11-21T08:34:14;96856.34;;;11.56;58.61
52591;BME280;38483;42.620;25.394;2023-11-21T08:36:43;96855.47;;;11.72;58.03
52591;BME280;38483;42.620;25.394;2023-11-21T08:39:10;96852.56;;;11.78;57.79
52591;BME280;38483;42.620;25.394;2023-11-21T08:41:39;96846.94;;;11.86;57.75
52591;BME280;38483;42.620;25.394;2023-11-21T08:44:07;96844.69;;;11.95;57.47
52591;BME280;38483;42.620;25.394;2023-11-21T08:46:36;96737.69;;;11.28;56.65
52591;BME280;38483;42.620;25.394;2023-11-21T08:49:06;96838.34;;;12.01;56.97
52591;BME280;38483;42.620;25.394;2023-11-21T08:51:34;96827.53;;;12.08;57.07
52591;BME280;38483;42.620;25.394;2023-11-21T08:54:01;96827.59;;;12.22;57.30
52591;BME280;38483;42.620;25.394;2023-11-21T08:56:31;96820.91;;;12.18;55.96
52591;BME280;38483;42.620;25.394;2023-11-21T08:58:59;96811.03;;;12.25;56.46
52591;BME280;38483;42.620;25.394;2023-11-21T09:01:31;96817.56;;;12.32;56.46
52591;BME280;38483;42.620;25.394;2023-11-21T09:03:59;96784.97;;;12.26;55.92
52591;BME280;38483;42.620;25.394;2023-11-21T09:06:27;96723.41;;;11.99;55.81
52591;BME280;38483;42.620;25.394;2023-11-21T09:08:54;96781.56;;;12.56;55.67
52591;BME280;38483;42.620;25.394;2023-11-21T09:11:22;96773.75;;;12.26;56.35
52591;BME280;38483;42.620;25.394;2023-11-21T09:13:52;96782.78;;;12.64;55.20
52591;BME280;38483;42.620;25.394;2023-11-21T09:16:20;96769.41;;;12.56;54.93
52591;BME280;38483;42.620;25.394;2023-11-21T09:18:47;96759.25;;;12.81;54.32
52591;BME280;38483;42.620;25.394;2023-11-21T09:21:14;96755.66;;;12.54;55.22
52591;BME280;38483;42.620;25.394;2023-11-21T09:23:44;96741.97;;;12.37;56.29
52591;BME280;38483;42.620;25.394;2023-11-21T09:26:14;96698.13;;;12.32;55.65
52591;BME280;38483;42.620;25.394;2023-11-21T09:28:45;96696.91;;;12.38;55.19
52591;BME280;38483;42.620;25.394;2023-11-21T09:31:14;96731.53;;;12.96;54.89
52591;BME280;38483;42.620;25.394;2023-11-21T09:33:44;96735.06;;;13.23;54.33
52591;BME280;38483;42.620;25.394;2023-11-21T09:36:12;96710.47;;;13.29;54.50
52591;BME280;38483;42.620;25.394;2023-11-21T09:38:43;96730.16;;;13.33;54.86
52591;BME280;38483;42.620;25.394;2023-11-21T09:41:19;96738.94;;;13.44;55.44
52591;BME280;38483;42.620;25.394;2023-11-21T09:43:49;96718.97;;;13.45;54.88
52591;BME280;38483;42.620;25.394;2023-11-21T09:46:21;96716.84;;;13.51;54.67
52591;BME280;38483;42.620;25.394;2023-11-21T09:48:50;96724.78;;;13.62;54.95
52591;BME280;38483;42.620;25.394;2023-11-21T09:51:21;96663.28;;;13.06;55.53
52591;BME280;38483;42.620;25.394;2023-11-21T09:53:55;96709.84;;;13.52;55.30
52591;BME280;38483;42.620;25.394;2023-11-21T09:56:25;96711.72;;;13.64;55.19
52591;BME280;38483;42.620;25.394;2023-11-21T09:58:56;96709.41;;;13.45;55.54
52591;BME280;38483;42.620;25.394;2023-11-21T10:01:27;96711.16;;;13.59;54.96
52591;BME280;38483;42.620;25.394;2023-11-21T10:03:56;96702.16;;;13.50;55.25
52591;BME280;38483;42.620;25.394;2023-11-21T10:06:24;96656.41;;;13.20;55.58
52591;BME280;38483;42.620;25.394;2023-11-21T10:08:53;96676.66;;;13.29;55.62
52591;BME280;38483;42.620;25.394;2023-11-21T10:11:27;96700.78;;;13.45;55.78
52591;BME280;38483;42.620;25.394;2023-11-21T10:13:59;96664.31;;;13.59;55.03
52591;BME280;38483;42.620;25.394;2023-11-21T10:16:28;96687.13;;;13.82;55.48
52591;BME280;38483;42.620;25.394;2023-11-21T10:19:00;96665.44;;;13.81;54.93
52591;BME280;38483;42.620;25.394;2023-11-21T10:21:38;96657.75;;;13.80;55.45
52591;BME280;38483;42.620;25.394;2023-11-21T10:24:07;96622.78;;;13.84;55.13
52591;BME280;38483;42.620;25.394;2023-11-21T10:26:34;96682.69;;;13.97;56.37
52591;BME280;38483;42.620;25.394;2023-11-21T10:29:19;96674.44;;;13.63;57.48
52591;BME280;38483;42.620;25.394;2023-11-21T10:31:50;96668.28;;;13.64;58.08
52591;BME280;38483;42.620;25.394;2023-11-21T10:34:19;96671.84;;;13.63;57.87
52591;BME280;38483;42.620;25.394;2023-11-21T10:36:47;96671.63;;;13.66;58.14
52591;BME280;38483;42.620;25.394;2023-11-21T10:39:17;96647.19;;;13.69;58.66
52591;BME280;38483;42.620;25.394;2023-11-21T10:41:47;96646.72;;;13.76;58.73
52591;BME280;38483;42.620;25.394;2023-11-21T10:44:16;96656.38;;;14.01;58.75
52591;BME280;38483;42.620;25.394;2023-11-21T10:46:52;96662.63;;;14.11;58.99
52591;BME280;38483;42.620;25.394;2023-11-21T10:49:25;96640.94;;;13.98;59.23
52591;BME280;38483;42.620;25.394;2023-11-21T10:51:54;96651.63;;;13.94;59.80
52591;BME280;38483;42.620;25.394;2023-11-21T10:54:23;96643.03;;;14.18;59.19
52591;BME280;38483;42.620;25.394;2023-11-21T10:56:57;96579.47;;;13.96;59.20
52591;BME280;38483;42.620;25.394;2023-11-21T10:59:30;96624.81;;;13.79;61.37
52591;BME280;38483;42.620;25.394;2023-11-21T11:01:58;96634.06;;;13.97;61.31
52591;BME280;38483;42.620;25.394;2023-11-21T11:04:28;96621.25;;;14.07;60.74
52591;BME280;38483;42.620;25.394;2023-11-21T11:07:05;96579.19;;;13.61;61.29
52591;BME280;38483;42.620;25.394;2023-11-21T11:09:37;96613.81;;;13.88;61.61
52591;BME280;38483;42.620;25.394;2023-11-21T11:12:04;96601.47;;;14.04;60.92
52591;BME280;38483;42.620;25.394;2023-11-21T11:14:32;96591.53;;;13.84;61.98
52591;BME280;38483;42.620;25.394;2023-11-21T11:17:01;96572.97;;;13.63;61.67
52591;BME280;38483;42.620;25.394;2023-11-21T11:19:30;96601.72;;;13.74;61.77
52591;BME280;38483;42.620;25.394;2023-11-21T11:22:30;96593.47;;;14.07;61.44
52591;BME280;38483;42.620;25.394;2023-11-21T11:25:35;96599.88;;;14.02;61.27
52591;BME280;38483;42.620;25.394;2023-11-21T11:28:12;96562.38;;;13.92;61.20
52591;BME280;38483;42.620;25.394;2023-11-21T11:36:10;96552.53;;;14.34;60.22
52591;BME280;38483;42.620;25.394;2023-11-21T11:38:46;96531.72;;;14.22;60.01
52591;BME280;38483;42.620;25.394;2023-11-21T11:41:31;96571.50;;;14.11;61.27
52591;BME280;38483;42.620;25.394;2023-11-21T11:44:01;96579.09;;;14.27;60.90
52591;BME280;38483;42.620;25.394;2023-11-21T11:46:44;96576.94;;;14.33;61.27
52591;BME280;38483;42.620;25.394;2023-11-21T11:49:27;96567.88;;;14.51;61.04
52591;BME280;38483;42.620;25.394;2023-11-21T11:55:16;96552.81;;;14.67;60.59
52591;BME280;38483;42.620;25.394;2023-11-21T11:57:55;96529.38;;;14.55;60.00
52591;BME280;38483;42.620;25.394;2023-11-21T12:03:00;96522.84;;;14.37;60.16
52591;BME280;38483;42.620;25.394;2023-11-21T12:05:33;96523.56;;;14.39;60.02
52591;BME280;38483;42.620;25.394;2023-11-21T12:08:03;96533.88;;;14.53;60.31
52591;BME280;38483;42.620;25.394;2023-11-21T12:10:33;96534.31;;;14.34;60.62
52591;BME280;38483;42.620;25.394;2023-11-21T12:13:01;96535.84;;;14.24;60.54
52591;BME280;38483;42.620;25.394;2023-11-21T12:15:30;96528.16;;;14.23;60.46
52591;BME280;38483;42.620;25.394;2023-11-21T12:17:58;96490.47;;;14.03;60.42
52591;BME280;38483;42.620;25.394;2023-11-21T12:20:28;96514.72;;;14.29;60.55
52591;BME280;38483;42.620;25.394;2023-11-21T12:22:57;96516.16;;;14.20;59.74
52591;BME280;38483;42.620;25.394;2023-11-21T12:25:29;96508.25;;;14.09;60.30
52591;BME280;38483;42.620;25.394;2023-11-21T12:27:59;96526.28;;;14.25;60.03
52591;BME280;38483;42.620;25.394;2023-11-21T12:30:28;96531.47;;;14.12;59.87
52591;BME280;38483;42.620;25.394;2023-11-21T12:32:59;96525.44;;;14.12;60.53
52591;BME280;38483;42.620;25.394;2023-11-21T12:35:31;96519.00;;;14.17;60.14
52591;BME280;38483;42.620;25.394;2023-11-21T12:38:03;96526.19;;;14.39;59.94
52591;BME280;38483;42.620;25.394;2023-11-21T12:40:32;96532.03;;;14.30;60.02
52591;BME280;38483;42.620;25.394;2023-11-21T12:43:00;96531.59;;;14.23;60.98
52591;BME280;38483;42.620;25.394;2023-11-21T12:45:29;96534.72;;;14.28;60.73
52591;BME280;38483;42.620;25.394;2023-11-21T12:48:04;96526.72;;;14.31;60.27
52591;BME280;38483;42.620;25.394;2023-11-21T12:50:37;96518.69;;;14.09;61.17
52591;BME280;38483;42.620;25.394;2023-11-21T12:53:12;96541.00;;;14.38;60.92
52591;BME280;38483;42.620;25.394;2023-11-21T12:55:40;96540.34;;;14.35;61.22
52591;BME280;38483;42.620;25.394;2023-11-21T12:58:10;96538.34;;;14.51;61.33
52591;BME280;38483;42.620;25.394;2023-11-21T13:00:42;96538.38;;;14.26;62.36
52591;BME280;38483;42.620;25.394;2023-11-21T13:03:11;96547.84;;;14.14;63.32
52591;BME280;38483;42.620;25.394;2023-11-21T13:05:48;96545.03;;;14.05;63.88
52591;BME280;38483;42.620;25.394;2023-11-21T13:08:23;96514.69;;;13.91;64.35
52591;BME280;38483;42.620;25.394;2023-11-21T13:10:54;96536.25;;;14.06;64.29
52591;BME280;38483;42.620;25.394;2023-11-21T13:13:27;96524.94;;;14.07;63.94
52591;BME280;38483;42.620;25.394;2023-11-21T13:15:57;96504.06;;;13.81;64.51